RYR84YK LFML-LMML
Flight info
| Callsign | RYR84YK |
|---|---|
| Flight time | 1h 39m |
| Altitude | 35000 |
| Route | TINOT M731 BATIV DCT PELOS DCT IPROM DCT MEGAN M732 GZO |
| Aircraft | B738/M-SDE2E3FGHIRWXY/LB1 |
Departure
| Time | 2026-05-05 15:40 |
|---|---|
| Airport | Marseille Provence Airport (LFML) |
Arrival
| Time | 2026-05-05 17:19 |
|---|---|
| Airport | Malta International Airport (LMML) |
| Time | Latitude | Longitude | Altitude | Speed | Heading |
|---|---|---|---|---|---|
| 2026-05-05 15:14 | 43.44211 | 5.21802 | 34 ft | 0 kts | 90° |
| 2026-05-05 15:34 | 43.44211 | 5.21806 | 35 ft | 3 kts | 89° |
| 2026-05-05 15:34 | 43.44201 | 5.21844 | 35 ft | 5 kts | 134° |
| 2026-05-05 15:34 | 43.44179 | 5.21844 | 35 ft | 1 kts | 224° |
| 2026-05-05 15:34 | 43.44179 | 5.21843 | 35 ft | 0 kts | 225° |
| 2026-05-05 15:35 | 43.44174 | 5.21837 | 35 ft | 3 kts | 224° |
| 2026-05-05 15:36 | 43.44132 | 5.21816 | 35 ft | 10 kts | 194° |
| 2026-05-05 15:36 | 43.44076 | 5.21762 | 36 ft | 10 kts | 223° |
| 2026-05-05 15:36 | 43.44026 | 5.21696 | 17 ft | 10 kts | 224° |
| 2026-05-05 15:36 | 43.43978 | 5.21632 | 37 ft | 9 kts | 223° |
| 2026-05-05 15:37 | 43.43931 | 5.21568 | 38 ft | 10 kts | 235° |
| 2026-05-05 15:37 | 43.43927 | 5.21481 | 37 ft | 10 kts | 300° |
| 2026-05-05 15:37 | 43.43981 | 5.21401 | 36 ft | 13 kts | 314° |
| 2026-05-05 15:37 | 43.44043 | 5.21313 | 33 ft | 13 kts | 313° |
| 2026-05-05 15:38 | 43.44105 | 5.21224 | 31 ft | 13 kts | 313° |
| 2026-05-05 15:38 | 43.44160 | 5.21130 | 30 ft | 13 kts | 290° |
| 2026-05-05 15:38 | 43.44138 | 5.21017 | 29 ft | 12 kts | 242° |
| 2026-05-05 15:38 | 43.44071 | 5.20959 | 31 ft | 12 kts | 176° |
| 2026-05-05 15:39 | 43.44005 | 5.21029 | 34 ft | 15 kts | 134° |
| 2026-05-05 15:39 | 43.43768 | 5.21366 | 42 ft | 86 kts | 134° |
| 2026-05-05 15:39 | 43.43185 | 5.22184 | 59 ft | 150 kts | 134° |
| 2026-05-05 15:39 | 43.42419 | 5.23307 | 630 ft | 162 kts | 137° |
| 2026-05-05 15:40 | 43.41531 | 5.24256 | 1467 ft | 164 kts | 156° |
| 2026-05-05 15:40 | 43.40496 | 5.24927 | 2244 ft | 173 kts | 155° |
| 2026-05-05 15:40 | 43.39348 | 5.25822 | 2668 ft | 205 kts | 150° |
| 2026-05-05 15:40 | 43.38042 | 5.26906 | 2959 ft | 231 kts | 151° |
| 2026-05-05 15:41 | 43.36592 | 5.28122 | 3374 ft | 258 kts | 149° |
| 2026-05-05 15:41 | 43.35086 | 5.29426 | 4524 ft | 255 kts | 150° |
| 2026-05-05 15:41 | 43.33567 | 5.30754 | 5385 ft | 262 kts | 150° |
| 2026-05-05 15:41 | 43.32010 | 5.32118 | 6282 ft | 267 kts | 154° |
| 2026-05-05 15:42 | 43.30261 | 5.32861 | 7155 ft | 263 kts | 179° |
| 2026-05-05 15:42 | 43.28418 | 5.32930 | 8053 ft | 266 kts | 182° |
| 2026-05-05 15:42 | 43.26574 | 5.32957 | 8941 ft | 269 kts | 182° |
| 2026-05-05 15:42 | 43.24684 | 5.32985 | 9847 ft | 273 kts | 182° |
| 2026-05-05 15:43 | 43.22754 | 5.33016 | 10460 ft | 286 kts | 182° |
| 2026-05-05 15:43 | 43.20677 | 5.33052 | 10748 ft | 309 kts | 182° |
| 2026-05-05 15:43 | 43.18497 | 5.33099 | 11480 ft | 315 kts | 182° |
| 2026-05-05 15:43 | 43.16328 | 5.33151 | 12372 ft | 315 kts | 182° |
| 2026-05-05 15:44 | 43.14126 | 5.33204 | 13284 ft | 317 kts | 182° |
| 2026-05-05 15:44 | 43.11902 | 5.33256 | 14067 ft | 321 kts | 182° |
| 2026-05-05 15:44 | 43.09649 | 5.33308 | 14762 ft | 325 kts | 182° |
| 2026-05-05 15:44 | 43.07409 | 5.33360 | 15526 ft | 327 kts | 183° |
| 2026-05-05 15:45 | 43.05123 | 5.33410 | 16301 ft | 329 kts | 183° |
| 2026-05-05 15:45 | 43.02812 | 5.33461 | 17051 ft | 332 kts | 183° |
| 2026-05-05 15:45 | 43.00489 | 5.33496 | 17799 ft | 335 kts | 184° |
| 2026-05-05 15:45 | 42.98943 | 5.33440 | 18272 ft | 336 kts | 186° |
| 2026-05-05 15:46 | 42.96593 | 5.33285 | 18907 ft | 339 kts | 187° |
| 2026-05-05 15:46 | 42.93451 | 5.33049 | 19783 ft | 342 kts | 187° |
| 2026-05-05 15:46 | 42.91063 | 5.32876 | 20423 ft | 345 kts | 187° |
| 2026-05-05 15:46 | 42.89468 | 5.32765 | 20822 ft | 347 kts | 188° |
| 2026-05-05 15:47 | 42.87046 | 5.32602 | 21418 ft | 350 kts | 188° |
| 2026-05-05 15:47 | 42.84598 | 5.32442 | 22032 ft | 353 kts | 188° |
| 2026-05-05 15:47 | 42.82131 | 5.32284 | 22662 ft | 355 kts | 188° |
| 2026-05-05 15:47 | 42.79650 | 5.32125 | 23264 ft | 358 kts | 188° |
| 2026-05-05 15:48 | 42.77150 | 5.31966 | 23786 ft | 361 kts | 189° |
| 2026-05-05 15:48 | 42.74635 | 5.31807 | 24320 ft | 362 kts | 188° |
| 2026-05-05 15:48 | 42.72085 | 5.32121 | 24828 ft | 378 kts | 172° |
| 2026-05-05 15:48 | 42.69628 | 5.33569 | 25323 ft | 395 kts | 158° |
| 2026-05-05 15:49 | 42.67437 | 5.35974 | 25743 ft | 418 kts | 140° |
| 2026-05-05 15:49 | 42.65667 | 5.39134 | 26175 ft | 428 kts | 135° |
| 2026-05-05 15:49 | 42.63945 | 5.42478 | 26582 ft | 433 kts | 134° |
| 2026-05-05 15:49 | 42.62235 | 5.45879 | 26986 ft | 437 kts | 134° |
| 2026-05-05 15:50 | 42.60516 | 5.49301 | 27400 ft | 440 kts | 134° |
| 2026-05-05 15:50 | 42.58776 | 5.52737 | 27812 ft | 442 kts | 134° |
| 2026-05-05 15:50 | 42.57011 | 5.56189 | 28219 ft | 445 kts | 135° |
| 2026-05-05 15:50 | 42.55253 | 5.59599 | 28608 ft | 447 kts | 135° |
| 2026-05-05 15:51 | 42.53455 | 5.63067 | 28982 ft | 450 kts | 135° |
| 2026-05-05 15:51 | 42.51640 | 5.66554 | 29363 ft | 453 kts | 136° |
| 2026-05-05 15:51 | 42.49816 | 5.70052 | 29731 ft | 456 kts | 136° |
| 2026-05-05 15:51 | 42.47974 | 5.73579 | 30002 ft | 459 kts | 136° |
| 2026-05-05 15:52 | 42.46116 | 5.77135 | 30277 ft | 462 kts | 135° |
| 2026-05-05 15:52 | 42.44288 | 5.80634 | 30718 ft | 460 kts | 136° |
| 2026-05-05 15:52 | 42.42450 | 5.84159 | 31277 ft | 455 kts | 136° |
| 2026-05-05 15:52 | 42.40630 | 5.87644 | 31808 ft | 451 kts | 136° |
| 2026-05-05 15:53 | 42.38816 | 5.91106 | 32243 ft | 450 kts | 136° |
| 2026-05-05 15:53 | 42.36999 | 5.94563 | 32640 ft | 449 kts | 136° |
| 2026-05-05 15:53 | 42.35209 | 5.97964 | 33061 ft | 447 kts | 136° |
| 2026-05-05 15:53 | 42.33410 | 6.01380 | 33527 ft | 445 kts | 136° |
| 2026-05-05 15:54 | 42.31618 | 6.04781 | 33965 ft | 442 kts | 137° |
| 2026-05-05 15:54 | 42.29830 | 6.08168 | 34268 ft | 442 kts | 136° |
| 2026-05-05 15:54 | 42.28028 | 6.11572 | 34412 ft | 446 kts | 136° |
| 2026-05-05 15:54 | 42.26211 | 6.14997 | 34587 ft | 449 kts | 136° |
| 2026-05-05 15:55 | 42.24405 | 6.18406 | 34872 ft | 449 kts | 136° |
| 2026-05-05 15:55 | 42.20741 | 6.25313 | 34926 ft | 455 kts | 135° |
| 2026-05-05 15:56 | 42.17070 | 6.32235 | 34915 ft | 449 kts | 136° |
| 2026-05-05 15:56 | 42.13465 | 6.39006 | 34931 ft | 446 kts | 136° |
| 2026-05-05 15:57 | 42.09829 | 6.45805 | 34932 ft | 447 kts | 136° |
| 2026-05-05 15:57 | 42.06203 | 6.52573 | 34922 ft | 447 kts | 136° |
| 2026-05-05 15:58 | 42.02556 | 6.59370 | 34928 ft | 448 kts | 136° |
| 2026-05-05 15:58 | 41.98899 | 6.66174 | 34917 ft | 449 kts | 136° |
| 2026-05-05 15:59 | 41.95254 | 6.72939 | 34939 ft | 449 kts | 136° |
| 2026-05-05 15:59 | 41.91579 | 6.79745 | 34932 ft | 449 kts | 136° |
| 2026-05-05 16:00 | 41.87897 | 6.86550 | 34913 ft | 449 kts | 136° |
| 2026-05-05 16:00 | 41.84240 | 6.93293 | 34929 ft | 449 kts | 136° |
| 2026-05-05 16:01 | 41.80554 | 7.00075 | 34941 ft | 449 kts | 136° |
| 2026-05-05 16:01 | 41.76863 | 7.06849 | 34921 ft | 449 kts | 135° |
| 2026-05-05 16:02 | 41.73197 | 7.13561 | 34933 ft | 449 kts | 136° |
| 2026-05-05 16:02 | 41.69500 | 7.20318 | 34938 ft | 449 kts | 136° |
| 2026-05-05 16:03 | 41.65798 | 7.27066 | 34940 ft | 449 kts | 136° |
| 2026-05-05 16:03 | 41.62117 | 7.33763 | 34946 ft | 449 kts | 136° |
| 2026-05-05 16:04 | 41.58409 | 7.40494 | 34942 ft | 449 kts | 136° |
| 2026-05-05 16:04 | 41.54697 | 7.47218 | 34942 ft | 449 kts | 136° |
| 2026-05-05 16:05 | 41.51006 | 7.53889 | 34937 ft | 448 kts | 136° |
| 2026-05-05 16:05 | 41.47287 | 7.60597 | 34915 ft | 449 kts | 135° |
| 2026-05-05 16:06 | 41.43587 | 7.67254 | 34931 ft | 449 kts | 135° |
| 2026-05-05 16:06 | 41.39850 | 7.73962 | 34951 ft | 450 kts | 135° |
| 2026-05-05 16:07 | 41.36124 | 7.80637 | 34953 ft | 451 kts | 135° |
| 2026-05-05 16:07 | 41.32392 | 7.87310 | 34940 ft | 452 kts | 135° |
| 2026-05-05 16:08 | 41.28626 | 7.94029 | 34945 ft | 452 kts | 136° |
| 2026-05-05 16:08 | 41.24859 | 8.00735 | 34949 ft | 452 kts | 135° |
| 2026-05-05 16:09 | 41.21089 | 8.07435 | 34953 ft | 452 kts | 135° |
| 2026-05-05 16:09 | 41.17295 | 8.14027 | 34955 ft | 447 kts | 141° |
| 2026-05-05 16:09 | 41.15099 | 8.16866 | 34962 ft | 436 kts | 149° |
| 2026-05-05 16:10 | 41.12656 | 8.19156 | 34955 ft | 425 kts | 158° |
| 2026-05-05 16:10 | 41.07630 | 8.23361 | 34951 ft | 433 kts | 151° |
| 2026-05-05 16:11 | 41.03015 | 8.28529 | 34946 ft | 437 kts | 147° |
| 2026-05-05 16:12 | 40.93852 | 8.39177 | 34957 ft | 437 kts | 148° |
| 2026-05-05 16:13 | 40.82299 | 8.52252 | 34962 ft | 438 kts | 148° |
| 2026-05-05 16:13 | 40.77644 | 8.57488 | 34956 ft | 439 kts | 148° |
| 2026-05-05 16:14 | 40.68319 | 8.67952 | 34973 ft | 442 kts | 148° |
| 2026-05-05 16:15 | 40.58950 | 8.78427 | 34961 ft | 443 kts | 147° |
| 2026-05-05 16:16 | 40.49526 | 8.88924 | 34978 ft | 444 kts | 147° |
| 2026-05-05 16:17 | 40.42455 | 8.96773 | 34977 ft | 444 kts | 147° |
| 2026-05-05 16:18 | 40.35366 | 9.04622 | 34974 ft | 443 kts | 147° |
| 2026-05-05 16:19 | 40.28323 | 9.12396 | 34972 ft | 442 kts | 147° |
| 2026-05-05 16:19 | 40.21265 | 9.20164 | 34981 ft | 442 kts | 147° |
| 2026-05-05 16:20 | 40.11826 | 9.30518 | 34991 ft | 442 kts | 147° |
| 2026-05-05 16:22 | 40.00039 | 9.43394 | 34986 ft | 444 kts | 147° |
| 2026-05-05 16:23 | 39.90542 | 9.53722 | 35000 ft | 447 kts | 147° |
| 2026-05-05 16:23 | 39.83369 | 9.61501 | 34997 ft | 449 kts | 146° |
| 2026-05-05 16:24 | 39.78550 | 9.66714 | 35006 ft | 450 kts | 146° |
| 2026-05-05 16:25 | 39.71308 | 9.74531 | 35005 ft | 450 kts | 146° |
| 2026-05-05 16:25 | 39.64095 | 9.82295 | 34998 ft | 450 kts | 146° |
| 2026-05-05 16:26 | 39.54473 | 9.92617 | 34981 ft | 448 kts | 146° |
| 2026-05-05 16:27 | 39.49664 | 9.97760 | 34989 ft | 447 kts | 146° |
| 2026-05-05 16:27 | 39.44888 | 10.02859 | 34993 ft | 446 kts | 146° |
| 2026-05-05 16:28 | 39.40096 | 10.07967 | 34992 ft | 445 kts | 146° |
| 2026-05-05 16:28 | 39.35334 | 10.13032 | 34976 ft | 445 kts | 146° |
| 2026-05-05 16:29 | 39.30548 | 10.18113 | 34991 ft | 444 kts | 146° |
| 2026-05-05 16:29 | 39.25762 | 10.23186 | 34983 ft | 444 kts | 146° |
| 2026-05-05 16:30 | 39.20978 | 10.28247 | 35007 ft | 445 kts | 146° |
| 2026-05-05 16:30 | 39.16200 | 10.33291 | 35002 ft | 446 kts | 146° |
| 2026-05-05 16:31 | 39.12194 | 10.37514 | 34996 ft | 447 kts | 146° |
| 2026-05-05 16:31 | 39.06587 | 10.43415 | 34998 ft | 448 kts | 146° |
| 2026-05-05 16:32 | 39.02567 | 10.47638 | 34996 ft | 448 kts | 146° |
| 2026-05-05 16:32 | 38.97733 | 10.52708 | 34996 ft | 448 kts | 146° |
| 2026-05-05 16:33 | 38.92924 | 10.57743 | 34983 ft | 447 kts | 146° |
| 2026-05-05 16:33 | 38.88100 | 10.62784 | 34992 ft | 446 kts | 146° |
| 2026-05-05 16:34 | 38.83276 | 10.67815 | 34990 ft | 445 kts | 146° |
| 2026-05-05 16:34 | 38.78491 | 10.72797 | 34996 ft | 445 kts | 146° |
| 2026-05-05 16:35 | 38.73676 | 10.77801 | 34997 ft | 444 kts | 146° |
| 2026-05-05 16:35 | 38.68869 | 10.82788 | 34996 ft | 444 kts | 146° |
| 2026-05-05 16:36 | 38.64087 | 10.87740 | 34997 ft | 444 kts | 146° |
| 2026-05-05 16:36 | 38.59281 | 10.92708 | 34982 ft | 444 kts | 146° |
| 2026-05-05 16:37 | 38.54465 | 10.97677 | 34999 ft | 444 kts | 146° |
| 2026-05-05 16:37 | 38.49686 | 11.02600 | 34999 ft | 444 kts | 146° |
| 2026-05-05 16:38 | 38.44862 | 11.07560 | 34998 ft | 445 kts | 146° |
| 2026-05-05 16:38 | 38.40014 | 11.12536 | 34998 ft | 446 kts | 146° |
| 2026-05-05 16:39 | 38.35197 | 11.17472 | 34989 ft | 447 kts | 146° |
| 2026-05-05 16:39 | 38.30338 | 11.22442 | 34995 ft | 447 kts | 146° |
| 2026-05-05 16:40 | 38.25483 | 11.27400 | 34994 ft | 447 kts | 146° |
| 2026-05-05 16:40 | 38.20652 | 11.32323 | 35007 ft | 447 kts | 146° |
| 2026-05-05 16:41 | 38.15789 | 11.37271 | 34995 ft | 446 kts | 146° |
| 2026-05-05 16:41 | 38.10930 | 11.42207 | 34995 ft | 446 kts | 146° |
| 2026-05-05 16:42 | 38.06115 | 11.47089 | 34991 ft | 445 kts | 145° |
| 2026-05-05 16:42 | 38.01278 | 11.51985 | 34994 ft | 444 kts | 145° |
| 2026-05-05 16:43 | 37.96443 | 11.56870 | 34996 ft | 443 kts | 146° |
| 2026-05-05 16:43 | 37.91618 | 11.61737 | 34996 ft | 442 kts | 146° |
| 2026-05-05 16:44 | 37.86825 | 11.66563 | 34996 ft | 442 kts | 146° |
| 2026-05-05 16:44 | 37.81997 | 11.71415 | 34995 ft | 442 kts | 145° |
| 2026-05-05 16:45 | 37.77202 | 11.76228 | 35001 ft | 442 kts | 145° |
| 2026-05-05 16:45 | 37.72379 | 11.81059 | 35000 ft | 442 kts | 146° |
| 2026-05-05 16:46 | 37.67576 | 11.85863 | 35000 ft | 442 kts | 146° |
| 2026-05-05 16:46 | 37.62730 | 11.90702 | 35006 ft | 443 kts | 146° |
| 2026-05-05 16:47 | 37.57908 | 11.95510 | 34993 ft | 443 kts | 145° |
| 2026-05-05 16:47 | 37.53172 | 12.00451 | 34996 ft | 447 kts | 137° |
| 2026-05-05 16:48 | 37.49137 | 12.06473 | 34985 ft | 445 kts | 132° |
| 2026-05-05 16:48 | 37.47192 | 12.09504 | 34653 ft | 441 kts | 132° |
| 2026-05-05 16:48 | 37.45289 | 12.12457 | 34363 ft | 435 kts | 132° |
| 2026-05-05 16:49 | 37.43374 | 12.15403 | 33997 ft | 432 kts | 133° |
| 2026-05-05 16:49 | 37.41466 | 12.18313 | 33591 ft | 429 kts | 133° |
| 2026-05-05 16:49 | 37.39593 | 12.21155 | 33214 ft | 426 kts | 133° |
| 2026-05-05 16:49 | 37.37703 | 12.24013 | 32835 ft | 422 kts | 133° |
| 2026-05-05 16:50 | 37.35824 | 12.26850 | 32464 ft | 419 kts | 133° |
| 2026-05-05 16:50 | 37.33963 | 12.29656 | 32102 ft | 416 kts | 133° |
| 2026-05-05 16:50 | 37.32110 | 12.32449 | 31746 ft | 413 kts | 133° |
| 2026-05-05 16:50 | 37.30272 | 12.35218 | 31386 ft | 411 kts | 133° |
| 2026-05-05 16:51 | 37.28462 | 12.37943 | 31045 ft | 408 kts | 133° |
| 2026-05-05 16:51 | 37.26643 | 12.40679 | 30697 ft | 406 kts | 133° |
| 2026-05-05 16:51 | 37.24837 | 12.43393 | 30338 ft | 403 kts | 133° |
| 2026-05-05 16:51 | 37.23040 | 12.46092 | 29977 ft | 401 kts | 133° |
| 2026-05-05 16:52 | 37.21271 | 12.48747 | 29579 ft | 399 kts | 133° |
| 2026-05-05 16:52 | 37.19494 | 12.51413 | 29207 ft | 396 kts | 133° |
| 2026-05-05 16:52 | 37.17733 | 12.54051 | 28843 ft | 392 kts | 133° |
| 2026-05-05 16:52 | 37.16011 | 12.56630 | 28571 ft | 387 kts | 133° |
| 2026-05-05 16:53 | 37.14295 | 12.59202 | 28264 ft | 382 kts | 133° |
| 2026-05-05 16:53 | 37.12592 | 12.61754 | 27930 ft | 379 kts | 133° |
| 2026-05-05 16:53 | 37.10900 | 12.64287 | 27569 ft | 377 kts | 133° |
| 2026-05-05 16:53 | 37.09214 | 12.66808 | 27221 ft | 375 kts | 133° |
| 2026-05-05 16:54 | 37.07562 | 12.69277 | 26876 ft | 373 kts | 133° |
| 2026-05-05 16:54 | 37.05891 | 12.71773 | 26526 ft | 371 kts | 133° |
| 2026-05-05 16:54 | 37.04233 | 12.74248 | 26182 ft | 369 kts | 133° |
| 2026-05-05 16:54 | 37.02586 | 12.76705 | 25836 ft | 367 kts | 133° |
| 2026-05-05 16:55 | 37.00962 | 12.79125 | 25484 ft | 366 kts | 133° |
| 2026-05-05 16:55 | 36.99328 | 12.81559 | 25151 ft | 364 kts | 133° |
| 2026-05-05 16:55 | 36.97697 | 12.83987 | 24814 ft | 363 kts | 133° |
| 2026-05-05 16:55 | 36.96074 | 12.86403 | 24473 ft | 362 kts | 133° |
| 2026-05-05 16:56 | 36.94450 | 12.88818 | 24117 ft | 362 kts | 133° |
| 2026-05-05 16:56 | 36.92830 | 12.91223 | 23771 ft | 361 kts | 133° |
| 2026-05-05 16:56 | 36.91208 | 12.93629 | 23394 ft | 361 kts | 133° |
| 2026-05-05 16:56 | 36.89611 | 12.95991 | 23029 ft | 359 kts | 133° |
| 2026-05-05 16:57 | 36.87999 | 12.98371 | 22676 ft | 357 kts | 133° |
| 2026-05-05 16:57 | 36.86394 | 13.00738 | 22330 ft | 355 kts | 133° |
| 2026-05-05 16:57 | 36.84799 | 13.03090 | 21989 ft | 353 kts | 133° |
| 2026-05-05 16:57 | 36.83218 | 13.05419 | 21651 ft | 351 kts | 133° |
| 2026-05-05 16:58 | 36.81662 | 13.07711 | 21326 ft | 349 kts | 133° |
| 2026-05-05 16:58 | 36.80093 | 13.10021 | 20991 ft | 347 kts | 133° |
| 2026-05-05 16:58 | 36.78533 | 13.12316 | 20661 ft | 346 kts | 133° |
| 2026-05-05 16:58 | 36.76974 | 13.14609 | 20324 ft | 345 kts | 133° |
| 2026-05-05 16:59 | 36.75420 | 13.16892 | 19993 ft | 344 kts | 133° |
| 2026-05-05 16:59 | 36.73871 | 13.19166 | 19653 ft | 343 kts | 133° |
| 2026-05-05 16:59 | 36.72344 | 13.21404 | 19337 ft | 342 kts | 133° |
| 2026-05-05 16:59 | 36.70799 | 13.23667 | 19023 ft | 340 kts | 133° |
| 2026-05-05 17:00 | 36.69265 | 13.25912 | 18702 ft | 339 kts | 133° |
| 2026-05-05 17:00 | 36.67734 | 13.28151 | 18354 ft | 339 kts | 133° |
| 2026-05-05 17:00 | 36.66223 | 13.30361 | 18005 ft | 338 kts | 133° |
| 2026-05-05 17:00 | 36.64699 | 13.32587 | 17648 ft | 337 kts | 133° |
| 2026-05-05 17:01 | 36.63180 | 13.34805 | 17310 ft | 335 kts | 133° |
| 2026-05-05 17:01 | 36.61669 | 13.37011 | 16978 ft | 333 kts | 133° |
| 2026-05-05 17:01 | 36.60171 | 13.39197 | 16653 ft | 332 kts | 133° |
| 2026-05-05 17:01 | 36.58674 | 13.41380 | 16328 ft | 330 kts | 133° |
| 2026-05-05 17:02 | 36.57184 | 13.43551 | 16006 ft | 328 kts | 133° |
| 2026-05-05 17:02 | 36.55724 | 13.45677 | 15691 ft | 326 kts | 133° |
| 2026-05-05 17:02 | 36.54250 | 13.47821 | 15373 ft | 325 kts | 133° |
| 2026-05-05 17:02 | 36.52781 | 13.49958 | 15055 ft | 323 kts | 133° |
| 2026-05-05 17:03 | 36.51318 | 13.52083 | 14744 ft | 322 kts | 133° |
| 2026-05-05 17:03 | 36.49862 | 13.54197 | 14427 ft | 320 kts | 133° |
| 2026-05-05 17:03 | 36.48435 | 13.56266 | 14157 ft | 318 kts | 133° |
| 2026-05-05 17:03 | 36.46999 | 13.58345 | 13866 ft | 316 kts | 133° |
| 2026-05-05 17:04 | 36.45565 | 13.60421 | 13525 ft | 315 kts | 133° |
| 2026-05-05 17:04 | 36.44141 | 13.62480 | 13190 ft | 313 kts | 133° |
| 2026-05-05 17:04 | 36.42724 | 13.64529 | 12871 ft | 311 kts | 133° |
| 2026-05-05 17:04 | 36.41333 | 13.66540 | 12565 ft | 309 kts | 133° |
| 2026-05-05 17:05 | 36.39935 | 13.68559 | 12259 ft | 307 kts | 133° |
| 2026-05-05 17:05 | 36.38542 | 13.70570 | 11950 ft | 305 kts | 133° |
| 2026-05-05 17:05 | 36.37158 | 13.72568 | 11643 ft | 304 kts | 133° |
| 2026-05-05 17:05 | 36.35780 | 13.74555 | 11339 ft | 302 kts | 133° |
| 2026-05-05 17:06 | 36.34428 | 13.76504 | 11039 ft | 301 kts | 133° |
| 2026-05-05 17:06 | 36.33061 | 13.78472 | 10742 ft | 300 kts | 133° |
| 2026-05-05 17:06 | 36.31701 | 13.80431 | 10436 ft | 299 kts | 133° |
| 2026-05-05 17:06 | 36.30348 | 13.82378 | 10182 ft | 296 kts | 133° |
| 2026-05-05 17:07 | 36.29024 | 13.84283 | 10028 ft | 289 kts | 133° |
| 2026-05-05 17:07 | 36.27709 | 13.86172 | 9716 ft | 289 kts | 132° |
| 2026-05-05 17:07 | 36.26400 | 13.88053 | 9413 ft | 287 kts | 132° |
| 2026-05-05 17:07 | 36.25095 | 13.89926 | 9121 ft | 285 kts | 133° |
| 2026-05-05 17:08 | 36.23802 | 13.91781 | 8841 ft | 284 kts | 132° |
| 2026-05-05 17:08 | 36.22510 | 13.93635 | 8559 ft | 282 kts | 133° |
| 2026-05-05 17:08 | 36.21243 | 13.95449 | 8282 ft | 280 kts | 133° |
| 2026-05-05 17:08 | 36.19970 | 13.97273 | 8008 ft | 278 kts | 132° |
| 2026-05-05 17:09 | 36.18705 | 13.99084 | 7727 ft | 277 kts | 131° |
| 2026-05-05 17:09 | 36.17449 | 14.00882 | 7458 ft | 275 kts | 133° |
| 2026-05-05 17:09 | 36.16200 | 14.02667 | 7198 ft | 273 kts | 131° |
| 2026-05-05 17:09 | 36.14977 | 14.04417 | 6921 ft | 271 kts | 131° |
| 2026-05-05 17:10 | 36.13742 | 14.06181 | 6661 ft | 269 kts | 132° |
| 2026-05-05 17:10 | 36.12520 | 14.07926 | 6374 ft | 268 kts | 131° |
| 2026-05-05 17:10 | 36.11294 | 14.09676 | 6053 ft | 268 kts | 131° |
| 2026-05-05 17:10 | 36.10076 | 14.11415 | 5780 ft | 267 kts | 132° |
| 2026-05-05 17:11 | 36.08876 | 14.13127 | 5498 ft | 265 kts | 132° |
| 2026-05-05 17:11 | 36.07677 | 14.14837 | 5356 ft | 258 kts | 132° |
| 2026-05-05 17:11 | 36.06514 | 14.16494 | 5244 ft | 251 kts | 132° |
| 2026-05-05 17:11 | 36.05382 | 14.18105 | 5134 ft | 244 kts | 132° |
| 2026-05-05 17:12 | 36.04283 | 14.19670 | 5041 ft | 238 kts | 133° |
| 2026-05-05 17:12 | 36.03380 | 14.21348 | 4925 ft | 235 kts | 114° |
| 2026-05-05 17:12 | 36.02856 | 14.23228 | 4836 ft | 229 kts | 110° |
| 2026-05-05 17:12 | 36.02336 | 14.25079 | 4624 ft | 225 kts | 110° |
| 2026-05-05 17:13 | 36.01826 | 14.26859 | 4389 ft | 220 kts | 111° |
| 2026-05-05 17:13 | 36.01170 | 14.28510 | 4174 ft | 210 kts | 132° |
| 2026-05-05 17:13 | 36.00175 | 14.29755 | 4083 ft | 196 kts | 136° |
| 2026-05-05 17:13 | 35.99248 | 14.30942 | 3949 ft | 192 kts | 136° |
| 2026-05-05 17:14 | 35.98327 | 14.32106 | 3720 ft | 190 kts | 137° |
| 2026-05-05 17:14 | 35.97397 | 14.33268 | 3481 ft | 190 kts | 136° |
| 2026-05-05 17:14 | 35.96461 | 14.34431 | 3227 ft | 189 kts | 137° |
| 2026-05-05 17:14 | 35.95543 | 14.35572 | 2988 ft | 183 kts | 136° |
| 2026-05-05 17:15 | 35.94662 | 14.36668 | 2749 ft | 174 kts | 136° |
| 2026-05-05 17:15 | 35.93832 | 14.37698 | 2520 ft | 165 kts | 136° |
| 2026-05-05 17:15 | 35.93038 | 14.38685 | 2307 ft | 160 kts | 137° |
| 2026-05-05 17:15 | 35.92263 | 14.39648 | 2118 ft | 155 kts | 136° |
| 2026-05-05 17:16 | 35.91516 | 14.40576 | 1894 ft | 151 kts | 136° |
| 2026-05-05 17:16 | 35.90803 | 14.41464 | 1701 ft | 139 kts | 136° |
| 2026-05-05 17:16 | 35.90148 | 14.42275 | 1556 ft | 134 kts | 136° |
| 2026-05-05 17:16 | 35.89491 | 14.43093 | 1355 ft | 133 kts | 135° |
| 2026-05-05 17:17 | 35.88830 | 14.43903 | 1156 ft | 136 kts | 135° |
| 2026-05-05 17:17 | 35.88178 | 14.44725 | 968 ft | 132 kts | 134° |
| 2026-05-05 17:17 | 35.87514 | 14.45545 | 808 ft | 136 kts | 134° |
| 2026-05-05 17:17 | 35.86854 | 14.46370 | 637 ft | 134 kts | 134° |
| 2026-05-05 17:18 | 35.86201 | 14.47175 | 462 ft | 131 kts | 133° |
| 2026-05-05 17:18 | 35.85585 | 14.47962 | 305 ft | 128 kts | 134° |
| 2026-05-05 17:18 | 35.85007 | 14.48675 | 264 ft | 100 kts | 135° |
| 2026-05-05 17:18 | 35.84722 | 14.49025 | 259 ft | 71 kts | 135° |
| 2026-05-05 17:19 | 35.84497 | 14.49337 | 258 ft | 40 kts | 119° |
| 2026-05-05 17:19 | 35.84454 | 14.49543 | 257 ft | 15 kts | 68° |
| 2026-05-05 17:19 | 35.84532 | 14.49562 | 256 ft | 12 kts | 328° |
| 2026-05-05 17:19 | 35.84597 | 14.49538 | 257 ft | 7 kts | 41° |
| 2026-05-05 17:20 | 35.84634 | 14.49582 | 256 ft | 6 kts | 24° |
| 2026-05-05 17:20 | 35.84676 | 14.49570 | 256 ft | 7 kts | 343° |
| 2026-05-05 17:20 | 35.84714 | 14.49541 | 257 ft | 7 kts | 318° |
| 2026-05-05 17:20 | 35.84753 | 14.49514 | 257 ft | 7 kts | 351° |
| 2026-05-05 17:21 | 35.84797 | 14.49513 | 257 ft | 5 kts | 360° |
| 2026-05-05 17:21 | 35.84812 | 14.49513 | 257 ft | 0 kts | 360° |